Time;durP1;ratioP1;P1;durP2;ratioP2;P2;SDS_P1;SDS_P2;PMS_P1;PMS_P2;Temp;Humidity;BMP_temperature;BMP_pressure;BME280_temperature;BME280_humidity;BME280_pressure;Samples;Min_cycle;Max_cycle;Signal;HPM_P1;HPM_P2
2022/03/01 00:01:25;;;;;;;;;;;2.60;99.90;;;;;;5092548;28;19913;-78
2022/03/01 00:03:50;;;;;;;;;;;2.50;99.90;;;;;;5092500;28;20064;-78
2022/03/01 00:06:16;;;;;;;;;;;2.50;99.90;;;;;;5091761;28;19947;-78
2022/03/01 00:08:41;;;;;;;;;;;2.60;99.90;;;;;;5092371;28;20242;-78
2022/03/01 00:11:07;;;;;;;;;;;2.60;99.90;;;;;;5091366;28;19908;-78
2022/03/01 00:13:33;;;;;;;;;;;2.50;99.90;;;;;;5091091;28;19908;-78
2022/03/01 00:15:58;;;;;;;;;;;2.50;99.90;;;;;;5091802;28;19935;-78
2022/03/01 00:18:24;;;;;;;;;;;2.30;99.90;;;;;;5091976;28;20311;-78
2022/03/01 00:20:49;;;;;;;;;;;2.30;99.90;;;;;;5092220;28;19918;-77
2022/03/01 00:23:15;;;;;;;;;;;2.20;99.90;;;;;;5091824;28;19987;-78
2022/03/01 00:25:40;;;;;;;;;;;2.10;99.90;;;;;;5092119;28;19912;-78
2022/03/01 00:28:06;;;;;;;;;;;2.00;99.90;;;;;;5092962;28;19915;-77
2022/03/01 00:30:32;;;;;;;;;;;1.90;99.90;;;;;;5091379;28;19908;-78
2022/03/01 00:32:57;;;;;;;;;;;1.80;99.90;;;;;;5091720;28;19908;-78
2022/03/01 00:35:23;;;;;;;;;;;1.80;99.90;;;;;;5092074;28;19915;-79
2022/03/01 00:37:49;;;;;;;;;;;1.80;99.90;;;;;;5092184;28;20424;-78
2022/03/01 00:40:14;;;;;;;;;;;1.80;99.90;;;;;;5091194;28;19957;-78
2022/03/01 00:42:40;;;;;;;;;;;1.80;99.90;;;;;;5090709;28;19939;-78
2022/03/01 00:45:06;;;;;;;;;;;1.70;99.90;;;;;;5091198;28;20068;-78
2022/03/01 00:47:31;;;;;;;;;;;1.70;99.90;;;;;;5091812;28;20455;-77
2022/03/01 00:49:57;;;;;;;;;;;1.80;99.90;;;;;;5091839;28;19970;-77
2022/03/01 00:52:23;;;;;;;;;;;1.70;99.90;;;;;;5091416;28;19995;-78
2022/03/01 00:54:49;;;;;;;;;;;1.80;99.90;;;;;;5092313;28;20005;-78
2022/03/01 00:57:14;;;;;;;;;;;1.80;99.90;;;;;;5091698;28;19927;-78
2022/03/01 00:59:40;;;;;;;;;;;1.80;99.90;;;;;;5092057;28;20348;-78
2022/03/01 01:02:06;;;;;;;;;;;1.70;99.90;;;;;;5092946;28;19912;-78
2022/03/01 01:04:31;;;;;;;;;;;1.60;99.90;;;;;;5095697;28;20315;-78
2022/03/01 01:06:57;;;;;;;;;;;1.50;99.90;;;;;;5094829;28;20261;-77
2022/03/01 01:09:22;;;;;;;;;;;1.50;99.90;;;;;;5095410;28;19991;-78
2022/03/01 01:11:48;;;;;;;;;;;1.50;99.90;;;;;;5094975;28;19909;-78
2022/03/01 01:14:13;;;;;;;;;;;1.50;99.90;;;;;;5109549;28;19904;-78
2022/03/01 01:16:40;;;;;;;;;;;1.60;99.90;;;;;;5095582;28;19908;-78
2022/03/01 01:19:06;;;;;;;;;;;1.60;99.90;;;;;;5094908;28;20006;-78
2022/03/01 01:24:15;;;;;;;;;;;1.40;99.90;;;;;;5094840;28;19972;-76
2022/03/01 01:26:41;;;;;;;;;;;1.40;99.90;;;;;;5095387;28;19912;-77
2022/03/01 01:29:06;;;;;;;;;;;1.40;99.90;;;;;;5094741;28;20315;-76
2022/03/01 01:31:32;;;;;;;;;;;1.40;99.90;;;;;;5095582;28;19909;-77
2022/03/01 01:33:57;;;;;;;;;;;1.30;99.90;;;;;;5095331;28;19957;-76
2022/03/01 01:36:25;;;;;;;;;;;1.30;99.90;;;;;;5095435;28;19908;-77
2022/03/01 01:38:53;;;;;;;;;;;1.20;99.90;;;;;;5095417;28;19912;-77
2022/03/01 01:41:19;;;;;;;;;;;1.30;99.90;;;;;;5094668;28;20022;-77
2022/03/01 01:43:44;;;;;;;;;;;1.30;99.90;;;;;;5095062;28;19998;-77
2022/03/01 01:46:10;;;;;;;;;;;1.30;99.90;;;;;;5094119;28;19913;-77
2022/03/01 01:48:35;;;;;;;;;;;1.30;99.90;;;;;;5095428;28;19915;-77
2022/03/01 01:51:01;;;;;;;;;;;1.30;99.90;;;;;;5094526;28;20341;-77
2022/03/01 01:53:27;;;;;;;;;;;1.20;99.90;;;;;;5095276;28;19951;-77
2022/03/01 01:55:52;;;;;;;;;;;1.20;99.90;;;;;;5094820;28;19974;-77
2022/03/01 01:58:20;;;;;;;;;;;1.20;99.90;;;;;;5109102;28;21848;-77
2022/03/01 02:00:45;;;;;;;;;;;1.30;99.90;;;;;;5094846;28;19917;-77
2022/03/01 02:03:11;;;;;;;;;;;1.30;99.90;;;;;;5094012;28;19966;-77
2022/03/01 02:05:37;;;;;;;;;;;1.40;99.90;;;;;;5094940;28;19915;-77
2022/03/01 02:08:02;;;;;;;;;;;1.40;99.90;;;;;;5094677;28;19958;-77
2022/03/01 02:10:28;;;;;;;;;;;1.40;99.90;;;;;;5094469;28;19997;-77
2022/03/01 02:12:56;;;;;;;;;;;1.30;99.90;;;;;;5094570;28;19912;-78
2022/03/01 02:15:23;;;;;;;;;;;1.30;99.90;;;;;;5093879;28;19916;-77
2022/03/01 02:17:48;;;;;;;;;;;1.30;99.90;;;;;;5094678;28;19961;-78
2022/03/01 02:20:18;;;;;;;;;;;1.30;99.90;;;;;;5093728;28;19915;-77
2022/03/01 02:22:43;;;;;;;;;;;1.30;99.90;;;;;;5094685;28;19991;-78
2022/03/01 02:25:09;;;;;;;;;;;1.20;99.90;;;;;;5093843;28;19946;-76
2022/03/01 02:27:35;;;;;;;;;;;1.20;99.90;;;;;;5094438;28;19919;-77
2022/03/01 02:30:01;;;;;;;;;;;1.30;99.90;;;;;;5093793;28;20490;-75
2022/03/01 02:32:26;;;;;;;;;;;1.30;99.90;;;;;;5103730;28;19936;-76
2022/03/01 02:34:52;;;;;;;;;;;1.20;99.90;;;;;;5099382;28;19947;-77
2022/03/01 02:37:18;;;;;;;;;;;1.20;99.90;;;;;;5093671;28;19915;-77
2022/03/01 02:39:43;;;;;;;;;;;1.20;99.90;;;;;;5094350;28;19915;-77
2022/03/01 02:42:09;;;;;;;;;;;1.10;99.90;;;;;;5093369;28;19944;-77
2022/03/01 02:44:34;;;;;;;;;;;1.10;99.90;;;;;;5093992;28;20410;-78
2022/03/01 02:47:00;;;;;;;;;;;1.10;99.90;;;;;;5093575;28;19913;-76
2022/03/01 02:49:26;;;;;;;;;;;1.00;99.90;;;;;;5093274;28;20372;-77
2022/03/01 02:51:51;;;;;;;;;;;1.00;99.90;;;;;;5094102;28;19915;-77
2022/03/01 02:54:17;;;;;;;;;;;1.10;99.90;;;;;;5093338;28;19914;-77
2022/03/01 02:56:42;;;;;;;;;;;1.10;99.90;;;;;;5093582;28;19920;-77
2022/03/01 02:59:08;;;;;;;;;;;1.20;99.90;;;;;;5093913;28;19919;-77
2022/03/01 03:01:34;;;;;;;;;;;1.10;99.90;;;;;;5111121;28;20401;-77
2022/03/01 03:04:00;;;;;;;;;;;1.10;99.90;;;;;;5113737;28;19912;-78
2022/03/01 03:06:25;;;;;;;;;;;1.10;99.90;;;;;;5093804;28;20352;-77
2022/03/01 03:08:51;;;;;;;;;;;1.00;99.90;;;;;;5094519;28;19908;-77
2022/03/01 03:11:17;;;;;;;;;;;0.90;99.90;;;;;;5093269;28;19951;-77
2022/03/01 03:13:42;;;;;;;;;;;0.80;99.90;;;;;;5093559;28;19951;-78
2022/03/01 03:16:08;;;;;;;;;;;0.80;99.90;;;;;;5093511;28;20307;-77
2022/03/01 03:18:34;;;;;;;;;;;0.70;99.90;;;;;;5092424;28;19912;-78
2022/03/01 03:20:59;;;;;;;;;;;0.70;99.90;;;;;;5093243;28;19912;-78
2022/03/01 03:23:25;;;;;;;;;;;0.60;99.90;;;;;;5093048;28;19954;-78
2022/03/01 03:25:51;;;;;;;;;;;0.70;99.90;;;;;;5095479;28;20002;-78
2022/03/01 03:28:17;;;;;;;;;;;0.70;99.90;;;;;;5094163;28;19908;-77
2022/03/01 03:30:42;;;;;;;;;;;0.70;99.90;;;;;;5093273;28;19974;-77
2022/03/01 03:33:08;;;;;;;;;;;0.70;99.90;;;;;;5092526;28;20268;-78
2022/03/01 03:35:33;;;;;;;;;;;0.70;99.90;;;;;;5093378;28;19947;-78
2022/03/01 03:37:59;;;;;;;;;;;0.70;99.90;;;;;;5092967;28;19908;-78
2022/03/01 03:40:24;;;;;;;;;;;0.70;99.90;;;;;;5092680;28;19916;-77
2022/03/01 03:42:50;;;;;;;;;;;0.70;99.90;;;;;;5093314;28;19923;-78
2022/03/01 03:45:16;;;;;;;;;;;0.70;99.90;;;;;;5092607;28;19915;-78
2022/03/01 03:47:42;;;;;;;;;;;0.60;99.90;;;;;;5092766;28;19912;-78
2022/03/01 03:50:09;;;;;;;;;;;0.50;99.90;;;;;;5095931;28;19908;-75
2022/03/01 03:52:38;;;;;;;;;;;0.50;99.90;;;;;;5093082;28;19943;-78
2022/03/01 03:55:05;;;;;;;;;;;0.60;99.90;;;;;;5092955;28;19935;-77
2022/03/01 03:57:32;;;;;;;;;;;0.50;99.90;;;;;;5092323;28;19930;-78
2022/03/01 03:59:58;;;;;;;;;;;0.50;99.90;;;;;;5093091;28;19908;-78
2022/03/01 04:02:23;;;;;;;;;;;0.60;99.90;;;;;;5092332;28;20285;-77
2022/03/01 04:04:49;;;;;;;;;;;0.60;99.90;;;;;;5093017;28;19912;-77
2022/03/01 04:07:14;;;;;;;;;;;0.60;99.90;;;;;;5092464;28;19908;-78
2022/03/01 04:09:40;;;;;;;;;;;0.60;99.90;;;;;;5091685;28;20253;-77
2022/03/01 04:12:06;;;;;;;;;;;0.50;99.90;;;;;;5093312;28;20210;-78
2022/03/01 04:14:31;;;;;;;;;;;0.60;99.90;;;;;;5092045;28;19909;-77
2022/03/01 04:16:57;;;;;;;;;;;0.50;99.90;;;;;;5093062;28;19908;-78
2022/03/01 04:19:23;;;;;;;;;;;0.50;99.90;;;;;;5092691;28;19953;-78
2022/03/01 04:21:48;;;;;;;;;;;0.40;99.90;;;;;;5102429;28;20388;-78
2022/03/01 04:24:14;;;;;;;;;;;0.50;99.90;;;;;;5092301;28;19912;-77
2022/03/01 04:26:39;;;;;;;;;;;0.50;99.90;;;;;;5092316;28;19962;-77
2022/03/01 04:29:05;;;;;;;;;;;0.50;99.90;;;;;;5092730;28;20286;-78
2022/03/01 04:31:30;;;;;;;;;;;0.50;99.90;;;;;;5091978;28;19916;-78
2022/03/01 04:33:56;;;;;;;;;;;0.50;99.90;;;;;;5092990;28;19908;-78
2022/03/01 04:36:22;;;;;;;;;;;0.60;99.90;;;;;;5093983;28;19912;-78
2022/03/01 04:38:48;;;;;;;;;;;0.50;99.90;;;;;;5096583;28;19909;-78
2022/03/01 04:41:14;;;;;;;;;;;0.60;99.90;;;;;;5095752;28;20406;-77
2022/03/01 04:43:40;;;;;;;;;;;0.70;99.90;;;;;;5096765;28;19959;-77
2022/03/01 04:46:05;;;;;;;;;;;0.70;99.90;;;;;;5096619;28;19931;-78
2022/03/01 04:48:31;;;;;;;;;;;0.80;99.90;;;;;;5095883;28;19916;-77
2022/03/01 04:50:56;;;;;;;;;;;0.80;99.90;;;;;;5096159;28;20369;-77
2022/03/01 04:53:22;;;;;;;;;;;0.90;99.90;;;;;;5095699;28;20033;-77
2022/03/01 04:55:47;;;;;;;;;;;0.90;99.90;;;;;;5096002;28;20323;-77
2022/03/01 04:58:13;;;;;;;;;;;0.90;99.90;;;;;;5095706;28;19952;-77
2022/03/01 05:00:39;;;;;;;;;;;0.90;99.90;;;;;;5095976;28;19954;-78
2022/03/01 05:03:04;;;;;;;;;;;0.80;99.90;;;;;;5096478;28;19967;-78
2022/03/01 05:05:30;;;;;;;;;;;0.90;99.90;;;;;;5095884;28;19981;-79
2022/03/01 05:07:56;;;;;;;;;;;0.90;99.90;;;;;;5096162;28;20281;-78
2022/03/01 05:10:21;;;;;;;;;;;0.90;99.90;;;;;;5095521;28;20323;-78
2022/03/01 05:12:48;;;;;;;;;;;0.90;99.90;;;;;;5096031;28;19916;-77
2022/03/01 05:15:14;;;;;;;;;;;1.00;99.90;;;;;;5095258;28;19915;-77
2022/03/01 05:17:40;;;;;;;;;;;1.00;99.90;;;;;;5094619;28;19954;-79
2022/03/01 05:20:06;;;;;;;;;;;0.90;99.90;;;;;;5095914;28;19940;-79
2022/03/01 05:22:32;;;;;;;;;;;0.80;99.90;;;;;;5094946;28;19977;-79
2022/03/01 05:24:58;;;;;;;;;;;0.70;99.90;;;;;;5095895;28;19916;-79
2022/03/01 05:27:23;;;;;;;;;;;0.60;99.90;;;;;;5095687;28;19916;-76
2022/03/01 05:29:50;;;;;;;;;;;0.70;99.90;;;;;;5115105;28;20017;-76
2022/03/01 05:32:16;;;;;;;;;;;0.60;99.90;;;;;;5112528;28;19908;-76
2022/03/01 05:34:41;;;;;;;;;;;0.50;99.90;;;;;;5096733;28;20273;-79
2022/03/01 05:37:07;;;;;;;;;;;0.40;99.90;;;;;;5106229;28;19892;-79
2022/03/01 05:39:32;;;;;;;;;;;0.30;99.90;;;;;;5109152;28;19908;-79
2022/03/01 05:41:58;;;;;;;;;;;0.30;99.90;;;;;;5095132;28;19918;-78
2022/03/01 05:44:23;;;;;;;;;;;0.40;99.90;;;;;;5094433;28;19924;-79
2022/03/01 05:46:49;;;;;;;;;;;0.50;99.90;;;;;;5094444;28;20369;-79
2022/03/01 05:49:15;;;;;;;;;;;0.50;99.90;;;;;;5094527;28;19908;-77
2022/03/01 05:51:40;;;;;;;;;;;0.50;99.90;;;;;;5094923;28;19916;-80
2022/03/01 05:54:06;;;;;;;;;;;0.50;99.90;;;;;;5093918;28;20355;-80
2022/03/01 05:56:31;;;;;;;;;;;0.50;99.90;;;;;;5094044;28;19920;-80
2022/03/01 05:58:57;;;;;;;;;;;0.50;99.90;;;;;;5095055;28;20003;-80
2022/03/01 06:01:22;;;;;;;;;;;0.50;99.90;;;;;;5094032;28;19913;-79
2022/03/01 06:03:48;;;;;;;;;;;0.50;99.90;;;;;;5095033;28;20312;-76
2022/03/01 06:06:14;;;;;;;;;;;0.50;99.90;;;;;;5094907;28;19912;-79
2022/03/01 06:08:39;;;;;;;;;;;0.40;99.90;;;;;;5094320;28;20250;-79
2022/03/01 06:11:05;;;;;;;;;;;0.30;99.90;;;;;;5094820;28;19961;-79
2022/03/01 06:13:31;;;;;;;;;;;0.20;99.90;;;;;;5093855;28;20285;-79
2022/03/01 06:15:58;;;;;;;;;;;0.20;99.90;;;;;;5094577;28;19962;-79
2022/03/01 06:18:24;;;;;;;;;;;0.10;99.90;;;;;;5094076;28;19908;-79
2022/03/01 06:20:49;;;;;;;;;;;0.10;99.90;;;;;;5094540;28;20268;-79
2022/03/01 06:23:15;;;;;;;;;;;0.10;99.90;;;;;;5094334;28;20352;-79
2022/03/01 06:25:43;;;;;;;;;;;0.10;99.90;;;;;;5093654;28;19912;-79
2022/03/01 06:28:09;;;;;;;;;;;0.20;99.90;;;;;;5094278;28;19908;-79
2022/03/01 06:30:34;;;;;;;;;;;0.20;99.90;;;;;;5093717;28;19915;-79
2022/03/01 06:33:00;;;;;;;;;;;0.30;99.90;;;;;;5094173;28;20007;-79
2022/03/01 06:35:25;;;;;;;;;;;0.30;99.90;;;;;;5093758;28;19908;-79
2022/03/01 06:37:51;;;;;;;;;;;0.30;99.90;;;;;;5094609;28;20001;-79
2022/03/01 06:40:17;;;;;;;;;;;0.30;99.90;;;;;;5092947;28;19908;-79
2022/03/01 06:42:42;;;;;;;;;;;0.20;99.90;;;;;;5094050;28;19916;-79
2022/03/01 06:45:08;;;;;;;;;;;0.20;99.90;;;;;;5092486;28;19952;-78
2022/03/01 06:47:34;;;;;;;;;;;0.20;99.90;;;;;;5093571;28;19918;-79
2022/03/01 06:50:00;;;;;;;;;;;0.20;99.90;;;;;;5092872;28;19912;-79
2022/03/01 06:52:26;;;;;;;;;;;0.30;99.90;;;;;;5093783;28;20002;-78
2022/03/01 06:54:51;;;;;;;;;;;0.40;99.90;;;;;;5102782;28;19954;-79
2022/03/01 06:57:18;;;;;;;;;;;0.50;99.90;;;;;;5101511;28;19974;-79
2022/03/01 06:59:43;;;;;;;;;;;0.50;99.90;;;;;;5092590;28;19914;-79
2022/03/01 07:02:09;;;;;;;;;;;0.50;99.90;;;;;;5093464;28;19916;-79
2022/03/01 07:04:34;;;;;;;;;;;0.40;99.90;;;;;;5093353;28;19991;-79
2022/03/01 07:07:00;;;;;;;;;;;0.30;99.90;;;;;;5093387;28;20323;-80
2022/03/01 07:09:25;;;;;;;;;;;0.20;99.90;;;;;;5093105;28;19966;-78
2022/03/01 07:11:51;;;;;;;;;;;0.10;99.90;;;;;;5093546;28;19988;-79
2022/03/01 07:14:17;;;;;;;;;;;0.10;99.90;;;;;;5093300;28;19915;-79
2022/03/01 07:16:42;;;;;;;;;;;0.10;99.90;;;;;;5092812;28;19916;-78
2022/03/01 07:19:08;;;;;;;;;;;0.10;99.90;;;;;;5093470;28;19912;-78
2022/03/01 07:21:33;;;;;;;;;;;0.10;99.90;;;;;;5092411;28;20008;-79
2022/03/01 07:23:59;;;;;;;;;;;0.10;99.90;;;;;;5093234;28;19912;-79
2022/03/01 07:26:25;;;;;;;;;;;0.20;99.90;;;;;;5091608;28;20349;-78
2022/03/01 07:28:50;;;;;;;;;;;0.30;99.90;;;;;;5093567;28;19912;-79
2022/03/01 07:31:16;;;;;;;;;;;0.30;99.90;;;;;;5093108;28;19912;-79
2022/03/01 07:33:41;;;;;;;;;;;0.30;99.90;;;;;;5092597;28;19960;-79
2022/03/01 07:36:07;;;;;;;;;;;0.30;99.90;;;;;;5092779;28;19909;-79
2022/03/01 07:38:33;;;;;;;;;;;0.30;99.90;;;;;;5092271;28;19920;-79
2022/03/01 07:40:58;;;;;;;;;;;0.20;99.90;;;;;;5092579;28;19920;-78
2022/03/01 07:43:24;;;;;;;;;;;0.20;99.90;;;;;;5092115;28;19912;-76
2022/03/01 07:45:50;;;;;;;;;;;0.10;99.90;;;;;;5092462;28;19927;-79
2022/03/01 07:48:15;;;;;;;;;;;0.10;99.90;;;;;;5093520;28;19931;-79
2022/03/01 07:50:41;;;;;;;;;;;0.10;99.90;;;;;;5092437;28;19938;-79
2022/03/01 07:53:06;;;;;;;;;;;0.00;99.90;;;;;;5092647;28;20269;-79
2022/03/01 07:55:34;;;;;;;;;;;-0.10;99.90;;;;;;5091758;28;19965;-79
2022/03/01 07:57:59;;;;;;;;;;;0.00;99.90;;;;;;5092527;28;19908;-79
2022/03/01 08:00:25;;;;;;;;;;;0.00;99.90;;;;;;5092062;28;20003;-77
2022/03/01 08:02:52;;;;;;;;;;;0.00;99.90;;;;;;5091692;28;19961;-80
2022/03/01 08:05:17;;;;;;;;;;;0.10;99.90;;;;;;5092930;28;20388;-80
2022/03/01 08:07:43;;;;;;;;;;;0.20;99.90;;;;;;5093087;28;19944;-80
2022/03/01 08:10:09;;;;;;;;;;;0.10;99.90;;;;;;5093108;28;19947;-79
2022/03/01 08:12:34;;;;;;;;;;;0.20;99.90;;;;;;5109029;28;19908;-80
2022/03/01 08:15:00;;;;;;;;;;;0.30;99.90;;;;;;5098383;28;19912;-80
2022/03/01 08:17:26;;;;;;;;;;;0.50;99.90;;;;;;5096829;28;19908;-77
2022/03/01 08:19:51;;;;;;;;;;;0.70;99.90;;;;;;5096770;28;19923;-80
2022/03/01 08:22:17;;;;;;;;;;;0.80;99.90;;;;;;5095459;28;19919;-80
2022/03/01 08:24:43;;;;;;;;;;;1.00;99.90;;;;;;5094268;28;19947;-79
2022/03/01 08:27:09;;;;;;;;;;;1.20;99.90;;;;;;5096405;28;19909;-78
2022/03/01 08:29:34;;;;;;;;;;;1.20;99.90;;;;;;5095778;28;19962;-77
2022/03/01 08:32:00;;;;;;;;;;;1.20;99.90;;;;;;5095781;28;20195;-78
2022/03/01 08:34:26;;;;;;;;;;;1.20;99.90;;;;;;5095515;28;19961;-75
2022/03/01 08:36:51;;;;;;;;;;;1.40;99.90;;;;;;5096156;28;20317;-77
2022/03/01 08:39:17;;;;;;;;;;;1.50;99.90;;;;;;5096304;28;19931;-79
2022/03/01 08:41:43;;;;;;;;;;;1.60;99.90;;;;;;5095811;28;19966;-77
2022/03/01 08:44:09;;;;;;;;;;;1.70;99.90;;;;;;5096655;28;19951;-78
2022/03/01 08:46:34;;;;;;;;;;;1.80;99.90;;;;;;5095845;28;19962;-77
2022/03/01 08:49:00;;;;;;;;;;;1.80;99.90;;;;;;5099484;28;20087;-78
2022/03/01 08:51:26;;;;;;;;;;;2.00;99.90;;;;;;5118402;28;19923;-75
2022/03/01 08:53:52;;;;;;;;;;;2.10;99.90;;;;;;5111241;28;19933;-80
2022/03/01 08:56:19;;;;;;;;;;;2.30;99.90;;;;;;5098144;28;20013;-76
2022/03/01 08:58:45;;;;;;;;;;;2.30;99.90;;;;;;5094995;28;19908;-78
2022/03/01 09:01:11;;;;;;;;;;;2.40;99.90;;;;;;5095575;28;19922;-77
2022/03/01 09:03:37;;;;;;;;;;;2.40;99.90;;;;;;5094092;28;20007;-80
2022/03/01 09:06:05;;;;;;;;;;;2.60;99.90;;;;;;5095834;28;20246;-79
2022/03/01 09:08:31;;;;;;;;;;;2.70;99.90;;;;;;5095169;28;19912;-78
2022/03/01 09:10:56;;;;;;;;;;;2.80;99.90;;;;;;5095602;28;19961;-79
2022/03/01 09:13:22;;;;;;;;;;;2.90;99.90;;;;;;5095421;28;19912;-79
2022/03/01 09:15:48;;;;;;;;;;;2.90;99.90;;;;;;5095197;28;20031;-78
2022/03/01 09:18:13;;;;;;;;;;;3.10;99.90;;;;;;5092455;28;20249;-78
2022/03/01 09:20:39;;;;;;;;;;;3.20;99.90;;;;;;5094957;28;19908;-79
2022/03/01 09:23:04;;;;;;;;;;;3.30;99.90;;;;;;5094790;28;19919;-78
2022/03/01 09:25:30;;;;;;;;;;;3.40;99.90;;;;;;5094923;28;19912;-78
2022/03/01 09:27:56;;;;;;;;;;;3.50;99.90;;;;;;5098415;28;19951;-79
2022/03/01 09:30:21;;;;;;;;;;;3.70;99.90;;;;;;5100198;28;19915;-78
2022/03/01 09:32:47;;;;;;;;;;;3.80;99.90;;;;;;5094600;28;19912;-79
2022/03/01 09:35:13;;;;;;;;;;;3.90;99.90;;;;;;5095048;28;19923;-78
2022/03/01 09:37:41;;;;;;;;;;;4.00;99.90;;;;;;5094813;28;19993;-79
2022/03/01 09:40:08;;;;;;;;;;;4.00;99.90;;;;;;5095228;28;19908;-79
2022/03/01 09:42:33;;;;;;;;;;;4.20;99.90;;;;;;5094376;28;19938;-78
2022/03/01 09:44:59;;;;;;;;;;;4.30;99.90;;;;;;5095664;28;19916;-79
2022/03/01 09:47:25;;;;;;;;;;;4.40;99.90;;;;;;5095099;28;20349;-79
2022/03/01 09:49:51;;;;;;;;;;;4.50;99.90;;;;;;5094263;28;19926;-78
2022/03/01 09:52:17;;;;;;;;;;;4.60;99.90;;;;;;5095206;28;20372;-78
2022/03/01 09:54:43;;;;;;;;;;;4.70;99.90;;;;;;5094435;28;19908;-78
2022/03/01 09:57:15;;;;;;;;;;;4.70;99.90;;;;;;5094095;28;19974;-78
2022/03/01 09:59:41;;;;;;;;;;;4.80;99.90;;;;;;5093917;28;20392;-79
2022/03/01 10:02:08;;;;;;;;;;;4.90;99.90;;;;;;5094017;28;19913;-78
2022/03/01 10:04:37;;;;;;;;;;;5.00;99.90;;;;;;5094084;28;20014;-77
2022/03/01 10:07:02;;;;;;;;;;;5.10;99.90;;;;;;5094302;28;20270;-79
2022/03/01 10:09:28;;;;;;;;;;;5.30;99.90;;;;;;5094608;28;19915;-79
2022/03/01 10:11:54;;;;;;;;;;;5.40;99.90;;;;;;5093943;28;20386;-79
2022/03/01 10:14:27;;;;;;;;;;;5.60;99.90;;;;;;5094396;28;19915;-79
2022/03/01 10:16:52;;;;;;;;;;;5.60;99.90;;;;;;5093714;28;19916;-79
2022/03/01 10:19:18;;;;;;;;;;;5.70;99.90;;;;;;5094381;28;19912;-79
2022/03/01 10:21:47;;;;;;;;;;;5.70;99.90;;;;;;5093364;28;20010;-79
2022/03/01 10:24:15;;;;;;;;;;;5.80;99.90;;;;;;5094535;28;19981;-79
2022/03/01 10:26:42;;;;;;;;;;;5.90;99.90;;;;;;5093860;28;20356;-76
2022/03/01 10:29:08;;;;;;;;;;;5.90;99.90;;;;;;5095702;28;19912;-78
2022/03/01 10:31:34;;;;;;;;;;;6.00;99.90;;;;;;5094885;28;19965;-76
2022/03/01 10:34:10;;;;;;;;;;;6.10;99.90;;;;;;5093968;28;19939;-77
2022/03/01 10:36:40;;;;;;;;;;;6.10;99.90;;;;;;5093785;28;19908;-79
2022/03/01 10:39:10;;;;;;;;;;;6.20;99.90;;;;;;5093905;28;19908;-78
2022/03/01 10:41:37;;;;;;;;;;;6.30;99.90;;;;;;5099842;28;19934;-77
2022/03/01 10:44:03;;;;;;;;;;;6.30;99.90;;;;;;5100307;28;20348;-78
2022/03/01 10:46:29;;;;;;;;;;;6.40;99.90;;;;;;5094055;28;19933;-78
2022/03/01 10:49:05;;;;;;;;;;;6.50;99.90;;;;;;5093519;28;19912;-78
2022/03/01 10:51:31;;;;;;;;;;;6.50;99.90;;;;;;5093894;28;19912;-78
2022/03/01 10:53:58;;;;;;;;;;;6.50;99.90;;;;;;5093148;28;19966;-79
2022/03/01 10:56:33;;;;;;;;;;;6.60;99.90;;;;;;5093164;28;19920;-77
2022/03/01 10:58:58;;;;;;;;;;;6.70;99.90;;;;;;5093545;28;19909;-79
2022/03/01 11:01:26;;;;;;;;;;;6.80;99.90;;;;;;5093474;28;19918;-78
2022/03/01 11:03:52;;;;;;;;;;;6.90;99.90;;;;;;5092914;28;19957;-78
2022/03/01 11:06:17;;;;;;;;;;;7.00;99.90;;;;;;5093695;28;20303;-78
2022/03/01 11:08:45;;;;;;;;;;;7.00;99.90;;;;;;5092975;28;19908;-78
2022/03/01 11:11:11;;;;;;;;;;;7.30;99.90;;;;;;5093308;28;19912;-77
2022/03/01 11:13:55;;;;;;;;;;;7.40;99.90;;;;;;5093009;28;20234;-76
2022/03/01 11:16:20;;;;;;;;;;;7.50;99.90;;;;;;5093549;28;19937;-79
2022/03/01 11:19:05;;;;;;;;;;;7.50;99.90;;;;;;5091405;28;19908;-77
2022/03/01 11:21:33;;;;;;;;;;;7.50;99.90;;;;;;5092980;28;20353;-78
2022/03/01 11:23:58;;;;;;;;;;;7.50;99.90;;;;;;5125568;27;20281;-78
2022/03/01 11:26:33;;;;;;;;;;;7.50;99.90;;;;;;5092994;28;19908;-78
2022/03/01 11:28:59;;;;;;;;;;;7.50;99.90;;;;;;5092773;28;19908;-79
2022/03/01 11:31:26;;;;;;;;;;;7.50;99.90;;;;;;5093353;28;19962;-79
2022/03/01 11:33:55;;;;;;;;;;;7.50;99.90;;;;;;5092512;28;19908;-79
2022/03/01 11:36:22;;;;;;;;;;;7.50;99.90;;;;;;5093617;28;20276;-78
2022/03/01 11:38:47;;;;;;;;;;;7.50;99.90;;;;;;5092158;28;19915;-79
2022/03/01 11:41:19;;;;;;;;;;;7.50;99.90;;;;;;5092869;28;19912;-77
2022/03/01 11:43:51;;;;;;;;;;;7.50;99.90;;;;;;5092377;28;19923;-77
2022/03/01 11:46:17;;;;;;;;;;;7.50;99.90;;;;;;5092332;28;19908;-77
2022/03/01 11:48:50;;;;;;;;;;;7.50;99.90;;;;;;5092296;28;19991;-77
2022/03/01 11:51:16;;;;;;;;;;;7.50;99.90;;;;;;5092839;28;19908;-78
2022/03/01 11:53:44;;;;;;;;;;;7.50;99.90;;;;;;5103014;28;19970;-78
2022/03/01 11:56:10;;;;;;;;;;;7.40;99.90;;;;;;5092098;28;20388;-77
2022/03/01 11:58:38;;;;;;;;;;;7.40;99.90;;;;;;5092746;28;19918;-77
2022/03/01 12:01:05;;;;;;;;;;;7.40;99.90;;;;;;5092537;28;20004;-78
2022/03/01 12:03:30;;;;;;;;;;;7.50;99.90;;;;;;5092052;28;19912;-78
2022/03/01 12:05:56;;;;;;;;;;;7.50;99.90;;;;;;5092549;28;19908;-77
2022/03/01 12:08:22;;;;;;;;;;;7.70;99.90;;;;;;5092525;28;19994;-77
2022/03/01 12:10:54;;;;;;;;;;;7.70;99.90;;;;;;5091670;28;20254;-78
2022/03/01 12:13:21;;;;;;;;;;;7.80;99.90;;;;;;5092344;28;19931;-77
2022/03/01 12:15:56;;;;;;;;;;;7.90;99.90;;;;;;5091026;28;19908;-77
2022/03/01 12:18:26;;;;;;;;;;;7.90;99.90;;;;;;5091878;28;20003;-76
2022/03/01 12:20:52;;;;;;;;;;;7.90;99.90;;;;;;5091166;28;19912;-76
2022/03/01 12:23:25;;;;;;;;;;;7.90;99.90;;;;;;5091783;28;20258;-77
2022/03/01 12:25:51;;;;;;;;;;;7.90;99.90;;;;;;5091466;28;19939;-77
2022/03/01 12:28:18;;;;;;;;;;;8.00;99.90;;;;;;5091544;28;19911;-77
2022/03/01 12:30:44;;;;;;;;;;;8.00;99.90;;;;;;5091475;28;19908;-77
2022/03/01 12:33:11;;;;;;;;;;;8.00;99.90;;;;;;5091568;28;19908;-77
2022/03/01 12:35:37;;;;;;;;;;;8.10;99.90;;;;;;5091786;28;19908;-77
2022/03/01 12:38:06;;;;;;;;;;;8.00;99.90;;;;;;5091149;28;20281;-77
2022/03/01 12:40:32;;;;;;;;;;;8.00;99.90;;;;;;5090671;28;19916;-78
2022/03/01 12:42:58;;;;;;;;;;;7.90;99.90;;;;;;5091001;28;19917;-78
2022/03/01 12:45:53;;;;;;;;;;;7.80;99.90;;;;;;5091687;28;19909;-77
2022/03/01 12:48:18;;;;;;;;;;;7.80;99.90;;;;;;5081058;28;20335;-78
2022/03/01 12:50:44;;;;;;;;;;;7.80;99.90;;;;;;5091094;28;19909;-77
2022/03/01 12:53:10;;;;;;;;;;;7.80;99.90;;;;;;5091803;28;20392;-77
2022/03/01 12:55:38;;;;;;;;;;;7.80;99.90;;;;;;5091377;28;19921;-77
2022/03/01 12:58:13;;;;;;;;;;;7.80;99.90;;;;;;5094041;28;19919;-77
2022/03/01 13:00:39;;;;;;;;;;;7.80;99.90;;;;;;5095641;28;19916;-76
2022/03/01 13:03:05;;;;;;;;;;;7.80;99.90;;;;;;5095549;28;20048;-77
2022/03/01 13:05:31;;;;;;;;;;;7.80;99.90;;;;;;5095372;28;19920;-78
2022/03/01 13:07:57;;;;;;;;;;;7.80;99.90;;;;;;5095404;28;19912;-78
2022/03/01 13:10:40;;;;;;;;;;;7.80;99.90;;;;;;5095832;28;19908;-77
2022/03/01 13:13:06;;;;;;;;;;;7.90;99.90;;;;;;5095414;28;19962;-76
2022/03/01 13:15:32;;;;;;;;;;;7.80;99.90;;;;;;5095708;28;19908;-76
2022/03/01 13:18:00;;;;;;;;;;;7.90;99.90;;;;;;5095089;28;19908;-76
2022/03/01 13:20:26;;;;;;;;;;;8.00;99.90;;;;;;5095545;28;20132;-77
2022/03/01 13:23:06;;;;;;;;;;;8.00;99.90;;;;;;5094873;28;20432;-77
2022/03/01 13:25:32;;;;;;;;;;;8.10;99.90;;;;;;5095026;28;19923;-77
2022/03/01 13:27:58;;;;;;;;;;;8.10;99.90;;;;;;5095057;28;19908;-77
2022/03/01 13:30:24;;;;;;;;;;;8.10;99.90;;;;;;5095209;28;20345;-79
2022/03/01 13:33:00;;;;;;;;;;;8.10;99.90;;;;;;5094788;28;19908;-76
2022/03/01 13:35:29;;;;;;;;;;;8.20;99.90;;;;;;5095383;28;19909;-77
2022/03/01 13:38:03;;;;;;;;;;;8.10;99.90;;;;;;5095007;28;19915;-77
2022/03/01 13:40:30;;;;;;;;;;;8.10;99.90;;;;;;5095264;28;19915;-76
2022/03/01 13:43:06;;;;;;;;;;;8.10;99.90;;;;;;5094491;28;19988;-79
2022/03/01 13:45:32;;;;;;;;;;;8.20;99.90;;;;;;5094851;28;20387;-77
2022/03/01 13:48:06;;;;;;;;;;;8.10;99.90;;;;;;5095837;28;19995;-76
2022/03/01 13:50:32;;;;;;;;;;;8.20;99.90;;;;;;5103712;28;20254;-77
2022/03/01 13:53:00;;;;;;;;;;;8.30;99.90;;;;;;5094450;28;19916;-77
2022/03/01 13:55:26;;;;;;;;;;;8.30;99.90;;;;;;5094812;28;20340;-77
2022/03/01 13:57:56;;;;;;;;;;;8.30;99.90;;;;;;5094386;28;19909;-77
2022/03/01 14:00:37;;;;;;;;;;;8.30;99.90;;;;;;5094464;28;19965;-78
2022/03/01 14:03:22;;;;;;;;;;;8.30;99.90;;;;;;5094148;28;20011;-77
2022/03/01 14:05:52;;;;;;;;;;;8.30;99.90;;;;;;5094153;28;19908;-76
2022/03/01 14:08:18;;;;;;;;;;;8.30;99.90;;;;;;5094392;28;19912;-77
2022/03/01 14:11:04;;;;;;;;;;;8.30;99.90;;;;;;5094780;28;19908;-77
2022/03/01 14:13:31;;;;;;;;;;;8.40;99.90;;;;;;5095039;27;19947;-77
2022/03/01 14:16:04;;;;;;;;;;;8.40;99.90;;;;;;5094094;28;20349;-78
2022/03/01 14:18:59;;;;;;;;;;;8.40;99.90;;;;;;5094579;28;19909;-78
2022/03/01 14:21:24;;;;;;;;;;;8.40;99.90;;;;;;5089138;28;19912;-77
2022/03/01 14:23:50;;;;;;;;;;;8.30;99.90;;;;;;5097424;28;19919;-76
2022/03/01 14:26:16;;;;;;;;;;;8.40;99.90;;;;;;5106998;28;19948;-77
2022/03/01 14:28:58;;;;;;;;;;;8.50;99.90;;;;;;5096634;28;19915;-77
2022/03/01 14:31:25;;;;;;;;;;;8.40;99.90;;;;;;5093882;28;19909;-77